Tropical Cyclones
[Index]
Main Index Home Page Stock Weather Photos Extreme Storms Discussion Storm News and Storm Chasing Reports Tropical Cyclones / Hurricanes / Typhoons Weather Data and Links Wild Fires / Bushfires Weather Observation Techniques Weather Picture Catalogue Tornado Pictures and Reports Stock Video Footage and DVDs for sale
Season 2003-2004 Tropical Cyclone OSCAR-ITSENG Track Map
Season 2003-2004 Summaries (Operational Data): [AU] [SIO] [SPAC] [SH]
<<- Previous TC | 2003-2004 Season | Next TC ->>

click for intensity scale information  Lat/long Grid: Show Hide

 Date Labels: Show Hide

Operational Tropical Cyclone Data : JTWC Advisories

Name: OSCAR-ITSENG
Number: 0420

20 Mar 2004 22:00 UTC to 28 Mar 2004 18:00 UTC

    date/time    lat    long     hPa   cat  kts
2004-03-20 22   12.0   102.0     998         30          
2004-03-21 06   13.3   103.8    1000         25          
2004-03-22 04   15.3   102.0    1002         25          
2004-03-23 04   15.1    99.1     998         30          
2004-03-23 10   15.3    98.5     996         30          
2004-03-23 16   15.0    98.0     996         30          
2004-03-23 22   14.8    97.4     985    2    50          
2004-03-24 04   14.5    96.6     985    2    50          
2004-03-24 10   14.8    95.7     980    2    55          
2004-03-24 16   14.8    95.1     975    2    60          
2004-03-24 22   15.1    93.7     975    2    60          
2004-03-25 04   15.6    93.3     960    3    70          
2004-03-25 10   16.4    92.5     960    3    70          
2004-03-25 16   16.4    92.7     950    3    75          
2004-03-25 22   17.0    92.1     935    4    95          
2004-03-26 04   17.3    92.2     935    4    95          
2004-03-26 10   17.7    92.0     935    4    95          
2004-03-26 16   17.8    91.7     935    4    95          
2004-03-26 22   17.9    91.3     940    4    90          
2004-03-27 04   17.9    90.7     965    3    70          
2004-03-27 10   19.1    90.5     970    2    55          
2004-03-27 16   19.8    90.2     975    2    50          
2004-03-27 18   19.4    89.9     978    2    55          
2004-03-28 00   19.5    89.3     986    2    50          
2004-03-28 06   19.5    89.0     995         30          
2004-03-28 12   19.7    89.2     998         30          
2004-03-28 18   20.0    89.0    1000         25          
Winds are 10-min average.

Tropical cyclone tracks developed by Michael Bath using operational warnings and advisories and Google Maps.


[Australian Severe Weather index] [Copyright Notice] [Email Contacts] [Search This Site] [Privacy Policy]
Document: tropical_cyclone_oscar-itseng.htm Updated: 28 May 2013